Time;durP1;ratioP1;P1;durP2;ratioP2;P2;SDS_P1;SDS_P2;PMS_P1;PMS_P2;Temp;Humidity;BMP_temperature;BMP_pressure;BME280_temperature;BME280_humidity;BME280_pressure;Samples;Min_cycle;Max_cycle;Signal;HPM_P1;HPM_P2
2022/05/19 00:02:05;;;;;;;5.33;1.87;;;;;;;7.09;71.89;98142.97;5071974;28;20214;-88
2022/05/19 00:04:34;;;;;;;2.67;2.27;;;;;;;7.17;72.24;98143.72;5072213;28;20829;-87
2022/05/19 00:07:01;;;;;;;5.03;2.67;;;;;;;7.15;72.15;98137.72;5072350;28;20198;-86
2022/05/19 00:09:29;;;;;;;3.13;2.17;;;;;;;7.08;71.08;98115.50;5073517;28;20996;-87
2022/05/19 00:12:01;;;;;;;2.90;1.90;;;;;;;7.22;70.82;98139.31;5073499;28;20221;-86
2022/05/19 00:14:28;;;;;;;2.60;1.73;;;;;;;7.26;70.33;98102.31;5087034;28;20197;-86
2022/05/19 00:16:57;;;;;;;2.70;1.83;;;;;;;7.71;70.48;98145.41;5078059;28;20606;-84
2022/05/19 00:19:26;;;;;;;3.27;2.00;;;;;;;7.51;70.16;98090.75;5080561;28;20296;-85
2022/05/19 00:21:55;;;;;;;3.40;2.20;;;;;;;7.86;69.60;98139.97;5079029;28;20218;-85
2022/05/19 00:24:23;;;;;;;3.07;2.20;;;;;;;7.61;70.25;98133.53;5075859;28;20185;-90
2022/05/19 00:26:52;;;;;;;4.87;1.83;;;;;;;7.74;69.65;98153.09;5078011;28;20181;-85
2022/05/19 00:29:25;;;;;;;2.97;1.80;;;;;;;7.60;70.14;98141.31;5079185;28;20205;-86
2022/05/19 00:31:55;;;;;;;2.73;2.00;;;;;;;7.52;70.46;98133.72;5077668;28;20725;-86
2022/05/19 00:34:24;;;;;;;4.20;2.00;;;;;;;7.44;70.40;98120.06;5097607;28;20216;-86
2022/05/19 00:37:01;;;;;;;2.90;1.80;;;;;;;7.38;71.25;98145.94;5100397;28;20196;-86
2022/05/19 00:39:37;;;;;;;2.23;2.00;;;;;;;6.92;72.71;98126.91;5099962;28;20180;-86
2022/05/19 00:45:04;;;;;;;3.70;2.30;;;;;;;6.85;73.68;98143.28;5081929;28;20181;-84
2022/05/19 00:47:46;;;;;;;2.77;2.40;;;;;;;6.46;73.87;98122.34;5081461;28;20200;-86
2022/05/19 00:50:24;;;;;;;2.40;2.10;;;;;;;6.66;75.33;98152.16;5110923;28;20185;-86
2022/05/19 00:52:55;;;;;;;2.50;2.27;;;;;;;6.67;74.56;98146.97;5097359;28;20218;-88
2022/05/19 00:55:29;;;;;;;3.53;1.90;;;;;;;6.51;74.28;98117.16;5113933;28;20241;-89
2022/05/19 00:58:07;;;;;;;2.40;2.13;;;;;;;6.42;75.08;98133.56;5106423;28;20210;-88
2022/05/19 01:00:36;;;;;;;6.60;2.40;;;;;;;6.33;75.24;98120.78;5086275;28;20207;-87
2022/05/19 01:03:04;;;;;;;2.40;1.80;;;;;;;6.47;74.63;98134.34;5064626;28;20674;-87
2022/05/19 01:05:51;;;;;;;4.57;1.83;;;;;;;6.59;75.27;98147.03;5081689;28;20599;-86
2022/05/19 01:08:25;;;;;;;2.30;1.77;;;;;;;6.76;74.48;98151.16;5094345;28;20623;-85
2022/05/19 01:10:57;;;;;;;3.77;1.80;;;;;;;6.71;74.38;98146.06;5076398;28;20456;-85
2022/05/19 01:13:31;;;;;;;4.47;2.10;;;;;;;6.63;73.43;98127.28;5094091;28;20221;-85
2022/05/19 01:16:00;;;;;;;3.23;1.87;;;;;;;6.39;73.92;98119.84;5079187;28;20226;-85
2022/05/19 01:18:30;;;;;;;2.53;1.73;;;;;;;6.07;74.91;98099.66;5075861;28;20205;-86
2022/05/19 01:20:58;;;;;;;3.10;1.83;;;;;;;6.27;74.94;98136.28;5099077;28;20198;-86
2022/05/19 01:23:57;;;;;;;2.10;1.90;;;;;;;6.32;75.23;98149.09;5102184;28;20239;-86
2022/05/19 01:26:47;;;;;;;3.30;3.00;;;;;;;6.36;75.19;98141.34;5083130;28;20260;-86
2022/05/19 01:29:24;;;;;;;5.00;2.20;;;;;;;6.21;74.53;98110.66;5094573;28;20278;-86
2022/05/19 01:31:55;;;;;;;3.73;2.20;;;;;;;6.41;74.95;98144.69;5096505;28;20233;-86
2022/05/19 01:34:32;;;;;;;5.07;2.83;;;;;;;6.35;73.53;98095.03;5099094;28;20218;-87
2022/05/19 01:37:04;;;;;;;4.20;3.00;;;;;;;6.37;73.80;98095.88;5094432;28;20875;-86
2022/05/19 01:39:53;;;;;;;5.10;3.00;;;;;;;6.57;73.26;98107.59;5057909;28;20226;-86
2022/05/19 01:42:40;;;;;;;3.37;3.07;;;;;;;6.65;73.50;98145.28;5057764;28;20214;-87
2022/05/19 01:45:31;;;;;;;4.53;2.80;;;;;;;6.75;73.92;98154.56;5072136;28;20264;-89
2022/05/19 01:48:09;;;;;;;3.10;2.80;;;;;;;6.57;73.80;98146.22;5086991;28;20579;-87
2022/05/19 01:50:47;;;;;;;2.70;2.47;;;;;;;6.67;74.47;98151.25;5088740;28;20190;-85
2022/05/19 01:53:27;;;;;;;2.73;2.53;;;;;;;6.49;73.96;98124.03;5087250;28;20222;-86
2022/05/19 01:56:09;;;;;;;4.50;2.40;;;;;;;6.64;72.70;98121.25;5088563;28;20203;-86
2022/05/19 01:58:47;;;;;;;4.80;1.97;;;;;;;6.44;74.11;98106.09;5088670;28;20197;-85
2022/05/19 02:01:18;;;;;;;4.20;2.47;;;;;;;6.55;74.46;98150.53;5087327;28;20531;-86
2022/05/19 02:03:48;;;;;;;4.53;2.07;;;;;;;6.69;73.25;98150.38;5089504;28;20186;-87
2022/05/19 02:06:29;;;;;;;2.80;2.30;;;;;;;6.98;72.53;98148.28;5073159;28;20650;-88
2022/05/19 02:09:06;;;;;;;3.03;2.10;;;;;;;7.22;70.75;98147.03;5067603;28;20191;-85
2022/05/19 02:11:43;;;;;;;2.03;1.93;;;;;;;7.23;71.99;98123.00;5114995;28;20196;-87
2022/05/19 02:14:14;;;;;;;4.50;2.03;;;;;;;7.39;70.02;98151.09;5111479;28;20241;-87
2022/05/19 02:16:43;;;;;;;6.23;2.23;;;;;;;7.33;70.46;98153.75;5091234;28;20199;-87
2022/05/19 02:19:13;;;;;;;2.40;1.80;;;;;;;7.26;70.12;98116.06;5088150;28;20699;-86
2022/05/19 02:21:41;;;;;;;4.47;2.60;;;;;;;7.45;69.76;98149.28;5108843;28;20194;-87
2022/05/19 02:24:12;;;;;;;2.33;1.73;;;;;;;7.36;70.28;98137.38;5087479;28;20714;-85
2022/05/19 02:26:39;;;;;;;3.97;2.10;;;;;;;7.21;69.81;98109.31;5054078;28;20190;-87
2022/05/19 02:29:22;;;;;;;2.43;1.70;;;;;;;7.08;71.10;98161.84;5056259;28;20186;-86
2022/05/19 02:31:52;;;;;;;4.23;2.33;;;;;;;6.80;72.08;98145.91;5040288;28;20208;-86
2022/05/19 02:34:25;;;;;;;4.17;2.23;;;;;;;6.67;72.28;98136.66;5059566;28;20586;-86
2022/05/19 02:36:55;;;;;;;3.07;2.50;;;;;;;6.74;71.34;98112.53;5060368;28;20217;-87
2022/05/19 02:39:25;;;;;;;3.40;2.23;;;;;;;6.79;71.44;98138.22;5060333;28;20205;-85
2022/05/19 02:41:54;;;;;;;5.43;2.30;;;;;;;6.27;73.36;98123.44;5063610;28;20198;-86
2022/05/19 02:44:22;;;;;;;2.70;2.30;;;;;;;6.26;73.50;98150.03;5059013;28;20201;-85
2022/05/19 02:46:54;;;;;;;4.53;2.50;;;;;;;6.13;73.77;98148.47;5059329;28;20270;-86
2022/05/19 02:49:27;;;;;;;2.50;2.30;;;;;;;6.04;74.11;98150.28;5059171;28;20196;-86
2022/05/19 02:51:54;;;;;;;4.53;2.60;;;;;;;5.66;74.73;98106.91;5057967;28;20192;-86
2022/05/19 02:54:22;;;;;;;5.27;2.37;;;;;;;5.87;74.82;98135.03;5055885;28;20202;-86
2022/05/19 02:56:56;;;;;;;5.17;2.47;;;;;;;6.07;75.40;98160.50;5058923;28;20196;-85
2022/05/19 02:59:26;;;;;;;2.57;2.00;;;;;;;6.15;74.44;98159.56;5059372;28;20565;-85
2022/05/19 03:01:56;;;;;;;3.40;2.20;;;;;;;6.52;74.11;98172.88;5027402;28;20290;-86
2022/05/19 03:04:30;;;;;;;2.90;2.70;;;;;;;6.19;73.00;98112.38;5060683;28;20234;-87
2022/05/19 03:06:59;;;;;;;5.50;2.77;;;;;;;6.42;73.11;98143.84;5059345;28;20196;-86
2022/05/19 03:09:32;;;;;;;2.53;2.20;;;;;;;6.56;73.48;98170.25;5044929;28;20201;-85
2022/05/19 03:12:10;;;;;;;4.80;2.30;;;;;;;6.87;71.49;98167.28;5061493;28;20674;-87
2022/05/19 03:14:47;;;;;;;4.23;2.00;;;;;;;6.62;72.47;98127.28;5041904;28;20222;-86
2022/05/19 03:17:17;;;;;;;3.80;2.27;;;;;;;7.04;70.53;98170.50;5056660;28;20203;-86
2022/05/19 03:19:53;;;;;;;2.90;1.93;;;;;;;7.06;70.15;98167.03;5035229;28;20254;-88
2022/05/19 03:22:22;;;;;;;2.73;1.90;;;;;;;6.82;70.54;98174.25;5055164;28;20188;-95
2022/05/19 03:24:51;;;;;;;3.00;2.10;;;;;;;6.40;72.31;98152.44;5065527;28;20222;-85
2022/05/19 03:27:20;;;;;;;5.97;2.77;;;;;;;6.27;73.06;98174.00;5080237;28;20186;-85
2022/05/19 03:29:48;;;;;;;4.73;1.90;;;;;;;6.55;72.57;98176.25;5112884;28;20204;-89
2022/05/19 03:32:17;;;;;;;4.53;2.33;;;;;;;6.18;73.54;98141.53;5095985;28;20189;-87
2022/05/19 03:34:46;;;;;;;5.23;2.23;;;;;;;6.78;73.73;98168.25;5080852;28;20226;-87
2022/05/19 03:37:18;;;;;;;3.17;2.07;;;;;;;7.29;71.39;98171.84;5078043;28;20198;-85
2022/05/19 03:39:45;;;;;;;2.87;2.10;;;;;;;7.27;71.15;98155.56;5073855;28;20200;-87
2022/05/19 03:42:13;;;;;;;3.53;1.93;;;;;;;7.55;70.16;98163.72;5073695;28;20193;-88
2022/05/19 03:44:46;;;;;;;2.30;1.97;;;;;;;8.13;69.00;98185.94;5095937;28;20193;-87
2022/05/19 03:47:13;;;;;;;3.80;1.70;;;;;;;8.65;66.60;98177.25;5076707;28;20278;-86
2022/05/19 03:49:40;;;;;;;5.20;2.00;;;;;;;8.84;65.22;98145.00;5095465;28;20188;-85
2022/05/19 03:52:09;;;;;;;7.10;2.00;;;;;;;9.05;64.44;98191.00;5095715;28;20189;-84
2022/05/19 03:54:40;;;;;;;7.07;1.50;;;;;;;9.07;64.40;98153.06;5061239;28;20575;-84
2022/05/19 03:57:08;;;;;;;2.67;1.67;;;;;;;9.59;63.76;98184.63;5077026;28;20192;-84
2022/05/19 03:59:35;;;;;;;2.93;1.70;;;;;;;10.10;62.83;98184.25;5075366;28;20197;-85
2022/05/19 04:02:03;;;;;;;2.70;1.73;;;;;;;10.53;61.99;98187.44;5094477;28;20716;-86
2022/05/19 04:04:42;;;;;;;10.00;3.40;;;;;;;10.22;62.21;98194.31;5091153;28;20192;-84
2022/05/19 04:07:09;;;;;;;3.57;1.70;;;;;;;10.49;62.10;98183.19;5090758;28;20184;-83
2022/05/19 04:09:37;;;;;;;2.50;1.50;;;;;;;10.59;61.88;98202.81;5097108;28;20692;-85
2022/05/19 04:12:06;;;;;;;3.63;1.77;;;;;;;9.97;63.61;98146.63;5077596;28;20196;-87
2022/05/19 04:14:36;;;;;;;2.30;1.40;;;;;;;10.64;61.62;98177.59;5077715;28;20748;-87
2022/05/19 04:17:04;;;;;;;2.73;1.60;;;;;;;10.78;61.16;98185.84;5090247;28;20744;-84
2022/05/19 04:19:31;;;;;;;2.93;1.67;;;;;;;11.21;61.48;98188.88;5098339;28;20185;-85
2022/05/19 04:21:59;;;;;;;2.83;1.63;;;;;;;11.19;60.33;98159.56;5071769;28;20195;-85
2022/05/19 04:24:27;;;;;;;2.90;1.90;;;;;;;11.71;59.19;98191.69;5106506;28;20189;-87
2022/05/19 04:26:57;;;;;;;2.40;1.60;;;;;;;11.08;61.96;98153.88;5095359;28;20196;-88
2022/05/19 04:29:24;;;;;;;2.53;1.80;;;;;;;11.48;60.83;98185.44;5079276;28;20220;-86
2022/05/19 04:31:51;;;;;;;2.53;1.80;;;;;;;11.57;61.68;98199.03;5108345;28;20274;-85
2022/05/19 04:34:18;;;;;;;6.17;2.07;;;;;;;11.50;61.46;98190.59;5110773;28;20213;-84
2022/05/19 04:36:46;;;;;;;2.20;2.00;;;;;;;11.83;61.01;98193.91;5117448;28;20216;-84
2022/05/19 04:39:14;;;;;;;6.83;2.87;;;;;;;11.96;61.23;98192.59;5092771;28;20193;-85
2022/05/19 04:41:45;;;;;;;2.80;1.97;;;;;;;11.92;60.68;98185.81;5082382;28;20182;-85
2022/05/19 04:44:14;;;;;;;2.87;2.27;;;;;;;12.24;60.18;98193.41;5082987;28;20191;-84
2022/05/19 04:46:42;;;;;;;6.87;3.53;;;;;;;12.80;58.20;98192.25;5116899;28;20229;-84
2022/05/19 04:49:12;;;;;;;3.90;2.30;;;;;;;12.79;58.77;98203.56;5116459;28;20174;-84
2022/05/19 04:51:40;;;;;;;5.77;2.33;;;;;;;12.65;57.65;98182.38;5117128;28;20186;-84
2022/05/19 04:54:08;;;;;;;8.53;2.77;;;;;;;13.16;56.15;98178.81;5098099;28;20213;-85
2022/05/19 04:56:51;;;;;;;3.30;2.23;;;;;;;13.37;55.46;98204.03;5115488;28;20193;-84
2022/05/19 04:59:24;;;;;;;4.90;2.60;;;;;;;13.48;54.60;98201.84;5081413;28;20184;-85
2022/05/19 05:01:55;;;;;;;4.07;2.53;;;;;;;13.00;55.19;98194.13;5098825;28;20192;-88
2022/05/19 05:04:26;;;;;;;12.90;3.57;;;;;;;13.36;55.53;98212.72;5114120;28;20193;-85
2022/05/19 05:06:54;;;;;;;7.87;2.90;;;;;;;13.39;55.10;98165.78;5116828;28;20198;-85
2022/05/19 05:09:23;;;;;;;6.30;2.50;;;;;;;13.84;54.79;98206.47;5099777;28;20187;-84
2022/05/19 05:11:52;;;;;;;9.80;3.63;;;;;;;13.65;55.28;98189.03;5094569;28;20268;-84
2022/05/19 05:14:22;;;;;;;2.67;1.97;;;;;;;13.58;55.27;98208.41;5116708;28;20253;-85
2022/05/19 05:16:53;;;;;;;7.53;2.80;;;;;;;13.77;55.48;98198.94;5097107;28;20598;-85
2022/05/19 05:19:25;;;;;;;6.77;2.23;;;;;;;13.69;55.10;98201.00;5099866;28;20196;-85
2022/05/19 05:21:56;;;;;;;3.63;2.30;;;;;;;13.70;54.52;98197.50;5116303;28;20180;-85
2022/05/19 05:24:23;;;;;;;6.10;3.13;;;;;;;13.92;53.69;98174.91;5097254;28;20195;-85
2022/05/19 05:26:59;;;;;;;7.60;2.87;;;;;;;13.84;53.04;98119.69;5099595;28;20180;-84
2022/05/19 05:29:35;;;;;;;9.27;2.63;;;;;;;14.39;52.23;98210.28;5081616;28;20168;-87
2022/05/19 05:32:08;;;;;;;7.33;2.43;;;;;;;14.40;51.85;98185.94;5100027;28;20189;-85
2022/05/19 05:34:35;;;;;;;3.50;2.07;;;;;;;14.34;52.02;98190.56;5116608;28;20218;-86
2022/05/19 05:37:07;;;;;;;5.23;2.00;;;;;;;14.01;53.17;98169.34;5082815;28;20173;-86
2022/05/19 05:39:38;;;;;;;6.50;3.50;;;;;;;14.43;52.79;98187.53;5117076;28;20181;-86
2022/05/19 05:42:05;;;;;;;4.83;2.57;;;;;;;14.72;52.61;98214.94;5117650;28;20231;-85
2022/05/19 05:44:34;;;;;;;4.93;2.07;;;;;;;14.76;52.03;98219.13;5100150;28;20171;-86
2022/05/19 05:47:01;;;;;;;6.73;2.30;;;;;;;14.76;52.14;98203.47;5098302;28;20193;-84
2022/05/19 05:49:28;;;;;;;5.40;2.60;;;;;;;15.05;51.72;98216.06;5113355;28;20250;-85
2022/05/19 05:51:58;;;;;;;7.90;2.10;;;;;;;15.38;50.52;98214.56;5101444;28;20188;-84
2022/05/19 05:54:25;;;;;;;3.13;2.07;;;;;;;15.11;51.05;98226.25;5103848;28;20251;-84
2022/05/19 05:56:55;;;;;;;4.10;2.20;;;;;;;14.61;52.29;98189.38;5103232;28;20185;-84
2022/05/19 05:59:22;;;;;;;5.77;2.13;;;;;;;14.81;52.20;98180.66;5100027;28;20207;-85
2022/05/19 06:01:54;;;;;;;3.27;1.87;;;;;;;15.20;50.72;98211.03;5098815;28;20180;-84
2022/05/19 06:04:21;;;;;;;3.33;2.07;;;;;;;15.28;50.44;98181.97;5083426;28;20193;-84
2022/05/19 06:06:48;;;;;;;3.00;2.00;;;;;;;15.28;51.11;98201.09;5104225;28;20184;-83
2022/05/19 06:09:18;;;;;;;4.77;1.93;;;;;;;15.39;50.79;98211.03;5104285;28;20232;-85
2022/05/19 06:11:46;;;;;;;3.73;2.33;;;;;;;15.10;51.91;98222.81;5107169;28;20191;-84
2022/05/19 06:14:16;;;;;;;3.83;1.90;;;;;;;15.25;52.89;98182.13;5105855;28;20216;-85
2022/05/19 06:16:44;;;;;;;5.13;2.00;;;;;;;15.51;51.94;98218.34;5105096;28;20185;-84
2022/05/19 06:19:11;;;;;;;5.40;2.10;;;;;;;15.75;51.33;98196.28;5106199;28;20211;-84
2022/05/19 06:21:39;;;;;;;2.80;2.03;;;;;;;15.97;50.79;98207.38;5069903;28;20210;-85
2022/05/19 06:24:08;;;;;;;4.77;2.27;;;;;;;16.13;50.15;98200.50;5105149;28;20200;-85
2022/05/19 06:26:38;;;;;;;3.63;2.60;;;;;;;16.41;49.39;98226.09;5103477;28;20686;-84
2022/05/19 06:29:10;;;;;;;3.80;2.00;;;;;;;16.37;48.47;98202.78;5103618;28;20195;-84
2022/05/19 06:31:38;;;;;;;2.20;1.47;;;;;;;16.36;48.54;98207.19;5101715;28;20673;-85
2022/05/19 06:34:05;;;;;;;2.30;1.83;;;;;;;16.39;46.72;98211.41;5104001;28;20289;-85
2022/05/19 06:36:35;;;;;;;5.30;1.80;;;;;;;16.04;43.13;98159.13;5087794;28;20190;-83
2022/05/19 06:39:03;;;;;;;5.47;2.23;;;;;;;16.43;45.46;98202.47;5087147;28;20192;-84
2022/05/19 06:44:19;;;;;;;4.60;1.77;;;;;;;16.64;43.81;98196.19;5106897;28;20224;-85
2022/05/19 06:46:47;;;;;;;2.60;2.00;;;;;;;17.00;44.67;98213.44;5112567;28;20185;-84
2022/05/19 06:49:18;;;;;;;4.17;1.83;;;;;;;16.67;42.36;98194.25;5103969;28;20203;-85
2022/05/19 06:51:47;;;;;;;2.37;1.73;;;;;;;16.66;42.58;98176.03;5054234;28;20231;-83
2022/05/19 06:54:21;;;;;;;2.80;2.10;;;;;;;16.02;43.00;98171.44;5102246;28;20246;-85
2022/05/19 06:56:47;;;;;;;4.47;1.30;;;;;;;16.52;43.60;98213.38;5068062;28;20201;-86
2022/05/19 06:59:17;;;;;;;2.83;1.30;;;;;;;16.32;41.98;98189.13;5103963;28;20188;-84
2022/05/19 07:01:47;;;;;;;2.67;1.43;;;;;;;16.37;41.96;98205.41;5085420;28;20260;-84
2022/05/19 07:04:17;;;;;;;3.53;1.73;;;;;;;16.43;41.84;98212.94;5103162;28;20196;-84
2022/05/19 07:06:45;;;;;;;5.10;1.70;;;;;;;16.62;41.77;98203.28;5066178;28;20192;-86
2022/05/19 07:09:13;;;;;;;4.83;1.60;;;;;;;16.42;41.77;98185.13;5093526;28;20219;-86
2022/05/19 07:11:41;;;;;;;2.17;1.37;;;;;;;16.09;41.42;98175.41;5095446;28;20194;-84
2022/05/19 07:14:10;;;;;;;2.07;1.50;;;;;;;16.40;41.06;98210.50;5111718;28;20221;-84
2022/05/19 07:16:44;;;;;;;3.00;1.50;;;;;;;16.35;41.95;98202.03;5114006;28;20204;-85
2022/05/19 07:22:04;;;;;;;3.33;1.40;;;;;;;16.68;41.40;98223.88;5098806;28;20261;-84
2022/05/19 07:24:33;;;;;;;4.10;1.70;;;;;;;16.78;40.72;98214.63;5080820;28;20185;-84
2022/05/19 07:27:06;;;;;;;3.17;1.40;;;;;;;16.52;40.57;98157.59;5114950;28;20229;-85
2022/05/19 07:29:33;;;;;;;4.33;1.70;;;;;;;16.84;40.37;98178.53;5116946;28;20246;-86
2022/05/19 07:32:03;;;;;;;5.43;2.00;;;;;;;16.84;40.26;98232.63;5116453;28;20181;-85
2022/05/19 07:34:35;;;;;;;5.57;2.00;;;;;;;16.66;40.22;98210.91;5116492;28;20213;-85
2022/05/19 07:37:03;;;;;;;2.67;1.10;;;;;;;16.72;40.27;98205.34;5116717;28;20221;-85
2022/05/19 07:39:31;;;;;;;3.60;1.53;;;;;;;16.79;40.45;98208.50;5116139;28;20186;-86
2022/05/19 07:42:00;;;;;;;2.87;1.83;;;;;;;16.80;39.86;98210.16;5114877;28;20269;-84
2022/05/19 07:44:32;;;;;;;6.13;1.43;;;;;;;16.65;40.16;98218.84;5114027;28;20193;-85
2022/05/19 07:47:01;;;;;;;2.20;1.40;;;;;;;16.68;40.50;98195.13;5112215;28;20200;-85
2022/05/19 07:49:28;;;;;;;6.77;1.67;;;;;;;17.08;40.28;98213.88;5109118;28;20277;-85
2022/05/19 07:51:55;;;;;;;2.10;1.60;;;;;;;16.97;39.57;98204.91;5113276;28;20188;-84
2022/05/19 07:54:26;;;;;;;3.07;1.40;;;;;;;16.92;39.81;98197.28;5113601;28;20292;-84
2022/05/19 07:56:55;;;;;;;4.07;1.70;;;;;;;16.87;40.56;98182.78;5095931;28;20198;-84
2022/05/19 07:59:22;;;;;;;3.10;1.60;;;;;;;16.87;39.48;98161.84;5094042;28;20201;-85
2022/05/19 08:01:52;;;;;;;3.43;1.40;;;;;;;16.83;39.38;98170.78;5096789;28;20178;-85
2022/05/19 08:04:21;;;;;;;2.63;1.40;;;;;;;17.31;39.61;98207.41;5114611;28;20185;-85
2022/05/19 08:06:49;;;;;;;3.23;1.57;;;;;;;17.33;38.43;98205.56;5114410;28;20200;-85
2022/05/19 08:12:06;;;;;;;4.37;1.47;;;;;;;17.22;38.73;98205.31;5079740;28;20180;-84
2022/05/19 08:17:32;;;;;;;3.40;1.50;;;;;;;17.07;39.17;98162.47;5084421;28;20175;-84
2022/05/19 08:20:00;;;;;;;6.00;1.50;;;;;;;17.33;39.59;98184.59;5080565;28;20214;-84
2022/05/19 08:22:32;;;;;;;4.70;1.77;;;;;;;17.22;39.14;98196.59;5113612;28;20205;-84
2022/05/19 08:25:00;;;;;;;4.07;1.50;;;;;;;17.33;38.58;98161.03;5111906;28;20209;-83
2022/05/19 08:27:30;;;;;;;4.07;1.80;;;;;;;17.51;38.21;98174.94;5098691;28;20212;-84
2022/05/19 08:29:59;;;;;;;2.47;1.47;;;;;;;17.42;38.71;98170.16;5080495;28;20740;-84
2022/05/19 08:32:31;;;;;;;3.77;1.90;;;;;;;17.51;38.16;98199.38;5098332;28;20204;-84
2022/05/19 08:34:59;;;;;;;2.83;1.53;;;;;;;17.44;38.52;98165.69;5113122;28;20294;-84
2022/05/19 08:37:34;;;;;;;6.23;1.57;;;;;;;17.69;37.57;98203.59;5114462;28;20227;-85
2022/05/19 08:40:02;;;;;;;4.50;1.40;;;;;;;17.72;38.67;98195.53;5098427;28;20241;-85
2022/05/19 08:42:34;;;;;;;2.43;1.40;;;;;;;17.94;38.69;98203.06;5115954;28;20272;-84
2022/05/19 08:45:05;;;;;;;1.83;1.40;;;;;;;17.79;37.68;98161.97;5099706;28;20212;-84
2022/05/19 08:47:38;;;;;;;3.40;1.50;;;;;;;17.38;38.02;98130.22;5099883;28;20188;-85
2022/05/19 08:50:38;;;;;;;4.53;2.30;;;;;;;17.42;37.65;98136.97;5099465;28;20206;-84
2022/05/19 08:53:11;;;;;;;3.53;1.33;;;;;;;17.55;37.77;98179.94;5116181;28;20201;-85
2022/05/19 08:55:43;;;;;;;4.27;1.70;;;;;;;17.45;37.47;98125.50;5098425;28;20292;-86
2022/05/19 08:58:45;;;;;;;2.40;1.23;;;;;;;17.79;36.45;98165.44;5098438;28;20197;-86
2022/05/19 09:01:54;;;;;;;4.87;1.60;;;;;;;17.90;36.66;98206.78;5109311;28;20177;-86
2022/05/19 09:04:38;;;;;;;1.60;1.50;;;;;;;17.76;37.06;98194.44;5076321;28;20198;-84
2022/05/19 09:07:58;;;;;;;2.70;1.40;;;;;;;17.56;36.45;98193.84;5115249;28;20278;-86
2022/05/19 09:10:46;;;;;;;2.30;1.20;;;;;;;17.61;36.19;98190.06;5114794;28;20198;-85
2022/05/19 09:13:36;;;;;;;2.30;1.60;;;;;;;17.96;36.17;98192.47;5115466;28;20194;-85
2022/05/19 09:16:12;;;;;;;2.00;1.17;;;;;;;17.68;35.97;98167.00;5094807;28;20177;-85
2022/05/19 09:18:58;;;;;;;2.70;1.33;;;;;;;17.61;36.89;98136.81;5095506;28;20198;-85
2022/05/19 09:21:40;;;;;;;1.70;1.43;;;;;;;17.76;37.25;98197.06;5108278;28;20619;-85
2022/05/19 09:24:11;;;;;;;3.93;1.60;;;;;;;17.49;35.60;98106.94;5066821;28;20653;-84
2022/05/19 09:26:58;;;;;;;1.63;1.20;;;;;;;18.16;35.76;98179.91;5111056;28;20270;-85
2022/05/19 09:29:45;;;;;;;1.80;1.37;;;;;;;18.33;35.92;98157.94;5104753;28;20206;-86
2022/05/19 09:32:35;;;;;;;2.30;1.33;;;;;;;18.04;35.12;98153.56;5091627;28;20281;-85
2022/05/19 09:35:07;;;;;;;3.13;1.40;;;;;;;18.33;34.52;98176.31;5109496;28;20223;-85
2022/05/19 09:38:37;;;;;;;2.73;1.13;;;;;;;18.05;34.54;98171.00;5105233;28;20202;-84
2022/05/19 09:41:28;;;;;;;2.97;1.30;;;;;;;18.03;35.92;98175.47;5063840;28;20190;-84
2022/05/19 09:43:58;;;;;;;3.20;1.03;;;;;;;18.00;35.26;98162.53;5084728;28;20245;-84
2022/05/19 09:46:40;;;;;;;3.87;1.23;;;;;;;18.17;36.39;98181.63;5067598;28;20229;-84
2022/05/19 09:49:32;;;;;;;1.67;1.30;;;;;;;17.98;36.89;98112.81;5103383;28;20199;-86
2022/05/19 09:52:24;;;;;;;6.40;1.60;;;;;;;18.50;36.16;98163.09;5084154;28;20199;-85
2022/05/19 09:55:08;;;;;;;1.30;1.20;;;;;;;18.01;36.12;98136.22;5087044;28;20221;-85
2022/05/19 09:57:59;;;;;;;3.17;1.20;;;;;;;18.05;35.58;98155.25;5101888;28;20199;-84
2022/05/19 10:00:32;;;;;;;1.50;1.20;;;;;;;18.19;37.03;98163.16;5072016;28;20263;-83
2022/05/19 10:03:04;;;;;;;1.63;1.40;;;;;;;18.13;35.50;98132.91;5104215;28;20400;-83
2022/05/19 10:05:51;;;;;;;3.23;1.80;;;;;;;18.44;35.88;98150.34;5086056;28;20263;-84
2022/05/19 10:08:41;;;;;;;4.60;1.37;;;;;;;18.42;36.41;98153.00;5101261;28;20197;-83
2022/05/19 10:11:14;;;;;;;2.13;1.40;;;;;;;18.62;35.19;98157.94;5086551;28;20700;-84
2022/05/19 10:13:58;;;;;;;1.77;1.27;;;;;;;18.60;35.23;98153.72;5114197;28;20216;-84
2022/05/19 10:16:47;;;;;;;5.60;2.17;;;;;;;18.79;35.36;98154.31;5079421;28;20321;-84
2022/05/19 10:19:27;;;;;;;2.23;1.30;;;;;;;18.53;33.57;98162.88;5094356;28;20232;-85
2022/05/19 10:22:08;;;;;;;2.93;1.60;;;;;;;18.42;36.32;98136.44;5111039;28;20218;-84
2022/05/19 10:24:53;;;;;;;3.67;1.47;;;;;;;18.89;35.83;98150.19;5094632;28;20196;-84
2022/05/19 10:31:24;;;;;;;3.47;1.20;;;;;;;18.67;34.78;98113.88;5031210;28;20202;-85
2022/05/19 10:34:20;;;;;;;5.97;1.30;;;;;;;19.05;34.57;98150.91;5006284;28;20205;-85
2022/05/19 10:36:54;;;;;;;3.60;1.60;;;;;;;18.60;35.33;98128.34;5102669;28;20194;-84
2022/05/19 10:39:23;;;;;;;5.37;1.70;;;;;;;18.96;35.25;98138.34;5093935;28;20255;-84
2022/05/19 10:42:03;;;;;;;3.13;1.37;;;;;;;19.10;34.30;98133.09;5092494;28;20252;-84
2022/05/19 10:44:55;;;;;;;3.63;1.90;;;;;;;19.38;34.47;98135.72;5093955;28;20199;-85
2022/05/19 10:47:53;;;;;;;6.70;2.03;;;;;;;19.37;35.13;98134.00;5108793;28;20211;-84
2022/05/19 10:50:28;;;;;;;4.00;1.50;;;;;;;19.35;35.31;98117.50;5111913;28;20192;-84
2022/05/19 10:53:04;;;;;;;3.37;1.30;;;;;;;19.44;34.62;98134.47;5106236;28;20194;-86
2022/05/19 10:55:44;;;;;;;4.50;1.40;;;;;;;19.65;34.25;98158.53;5111157;28;20219;-85
2022/05/19 10:58:39;;;;;;;2.17;1.60;;;;;;;19.33;34.33;98132.53;5113410;28;20191;-84
2022/05/19 11:01:35;;;;;;;4.47;1.20;;;;;;;19.05;34.75;98137.78;5103774;28;20203;-84
2022/05/19 11:04:24;;;;;;;2.13;1.50;;;;;;;19.05;35.18;98124.66;5104749;28;20192;-85
2022/05/19 11:07:30;;;;;;;2.87;1.33;;;;;;;19.02;33.99;98127.47;5096671;28;20207;-84
2022/05/19 11:10:29;;;;;;;1.33;1.20;;;;;;;19.28;34.40;98134.56;5108318;28;20192;-85
2022/05/19 11:13:43;;;;;;;2.23;1.57;;;;;;;19.58;34.42;98113.41;5085552;28;20296;-85
2022/05/19 11:16:40;;;;;;;3.63;1.60;;;;;;;19.78;34.59;98112.97;5084641;28;20187;-85
2022/05/19 11:19:28;;;;;;;2.33;1.30;;;;;;;19.63;34.79;98124.47;5083797;28;20199;-85
2022/05/19 11:22:16;;;;;;;3.03;1.33;;;;;;;19.29;35.24;98106.50;5078642;28;20904;-84
2022/05/19 11:27:52;;;;;;;1.40;1.10;;;;;;;19.52;33.39;98112.94;5094868;28;20263;-85
2022/05/19 11:30:29;;;;;;;3.37;1.50;;;;;;;19.41;34.79;98111.03;5096918;28;20192;-83
2022/05/19 11:33:01;;;;;;;3.87;1.30;;;;;;;19.24;33.57;98112.06;5116074;28;20202;-85
2022/05/19 11:35:36;;;;;;;1.63;1.43;;;;;;;19.02;36.00;98093.34;5083592;28;20231;-85
2022/05/19 11:38:21;;;;;;;1.63;1.00;;;;;;;18.92;35.83;98097.47;5113259;28;20289;-85
2022/05/19 11:41:09;;;;;;;1.33;1.20;;;;;;;19.14;36.03;98095.22;5096036;28;20211;-85
2022/05/19 11:44:11;;;;;;;1.73;1.17;;;;;;;19.24;34.72;98101.56;5094633;28;20243;-84
2022/05/19 11:47:03;;;;;;;4.20;1.00;;;;;;;19.17;35.87;98081.03;5097796;28;20188;-83
2022/05/19 11:55:30;;;;;;;3.07;1.90;;;;;;;19.13;36.59;98085.63;5093920;28;20231;-85
2022/05/19 11:58:10;;;;;;;2.87;1.10;;;;;;;18.97;35.56;98079.66;5113873;28;20187;-85
2022/05/19 12:00:52;;;;;;;8.97;1.50;;;;;;;18.80;35.88;98066.75;5114160;28;20195;-85
2022/05/19 12:04:02;;;;;;;2.37;1.20;;;;;;;18.91;37.20;98072.19;5112203;28;20196;-84
2022/05/19 12:06:47;;;;;;;6.20;1.50;;;;;;;18.92;35.56;98076.47;5110580;28;20190;-84
2022/05/19 12:09:21;;;;;;;1.90;1.10;;;;;;;19.04;35.27;98074.88;5114429;28;20219;-85
2022/05/19 12:12:32;;;;;;;1.33;1.23;;;;;;;18.85;35.96;98059.44;5113629;28;20206;-84
2022/05/19 12:15:18;;;;;;;3.03;1.60;;;;;;;19.03;36.03;98068.78;5091431;28;20314;-84
2022/05/19 12:17:55;;;;;;;3.40;1.17;;;;;;;19.15;33.91;98086.38;5089735;28;20697;-85
2022/05/19 12:20:50;;;;;;;3.33;1.60;;;;;;;19.12;35.32;98068.22;5088366;28;20222;-85
2022/05/19 12:23:18;;;;;;;4.70;1.30;;;;;;;19.23;35.99;98060.47;5106747;28;20219;-83
2022/05/19 12:25:50;;;;;;;1.60;1.30;;;;;;;19.33;35.93;98053.72;5108953;28;20219;-85
2022/05/19 12:32:07;;;;;;;2.37;1.33;;;;;;;19.12;34.74;98062.97;5091892;28;20246;-83
2022/05/19 12:34:52;;;;;;;1.40;1.30;;;;;;;19.11;34.29;98042.88;5089344;28;20226;-84
2022/05/19 12:37:44;;;;;;;2.07;1.20;;;;;;;19.29;34.94;98053.97;5090892;28;20196;-84
2022/05/19 12:40:28;;;;;;;2.30;1.23;;;;;;;19.25;34.68;98052.47;5107332;28;20206;-84
2022/05/19 12:43:15;;;;;;;2.60;1.40;;;;;;;19.25;35.06;98041.97;5109330;28;20217;-84
2022/05/19 12:45:48;;;;;;;1.20;1.10;;;;;;;19.39;35.65;98023.59;5108210;28;20255;-84